Time;durP1;ratioP1;P1;durP2;ratioP2;P2;SDS_P1;SDS_P2;PMS_P1;PMS_P2;Temp;Humidity;BMP_temperature;BMP_pressure;BME280_temperature;BME280_humidity;BME280_pressure;Samples;Min_cycle;Max_cycle;Signal;HPM_P1;HPM_P2
2022/07/22 00:01:09;;;;;;;4.18;2.80;;;;;;;17.16;69.49;99340.53;4916403;29;20100;-79
2022/07/22 00:03:36;;;;;;;3.53;2.78;;;;;;;17.25;69.55;99350.81;4916402;29;20059;-78
2022/07/22 00:06:03;;;;;;;3.00;2.60;;;;;;;17.18;69.48;99357.19;4916319;29;20062;-79
2022/07/22 00:08:31;;;;;;;4.68;2.63;;;;;;;17.22;69.56;99364.09;4916397;29;20570;-76
2022/07/22 00:10:58;;;;;;;3.42;2.42;;;;;;;17.19;69.71;99383.53;4915307;29;20059;-78
2022/07/22 00:13:25;;;;;;;4.45;2.55;;;;;;;17.03;69.73;99347.13;4916281;29;20106;-78
2022/07/22 00:15:52;;;;;;;4.00;2.78;;;;;;;17.15;69.74;99387.19;4915652;29;20095;-79
2022/07/22 00:18:20;;;;;;;4.63;3.45;;;;;;;17.12;69.85;99387.28;4916051;29;20540;-79
2022/07/22 00:20:47;;;;;;;3.45;2.83;;;;;;;17.10;70.06;99362.72;4916041;29;20079;-79
2022/07/22 00:23:16;;;;;;;2.88;2.55;;;;;;;17.04;69.90;99354.13;4916002;29;20060;-78
2022/07/22 00:25:43;;;;;;;3.88;2.92;;;;;;;17.06;69.98;99357.59;4915904;29;20064;-78
2022/07/22 00:28:11;;;;;;;3.38;3.00;;;;;;;17.08;70.17;99372.47;4916015;29;20422;-78
2022/07/22 00:30:39;;;;;;;7.05;2.90;;;;;;;17.01;69.92;99347.16;4930878;29;20494;-79
2022/07/22 00:33:07;;;;;;;3.10;2.80;;;;;;;17.09;70.07;99375.97;4916302;29;20107;-79
2022/07/22 00:35:34;;;;;;;3.22;2.60;;;;;;;17.01;70.09;99357.72;4916086;29;20052;-79
2022/07/22 00:38:09;;;;;;;4.25;2.80;;;;;;;16.89;70.04;99340.50;4916021;29;20059;-79
2022/07/22 00:40:36;;;;;;;3.05;2.75;;;;;;;16.85;70.24;99333.59;4916053;29;20470;-79
2022/07/22 00:43:03;;;;;;;4.97;2.88;;;;;;;17.13;70.14;99383.72;4915940;29;20142;-80
2022/07/22 00:45:30;;;;;;;3.20;2.90;;;;;;;17.13;70.02;99393.44;4916194;29;20059;-80
2022/07/22 00:48:00;;;;;;;;;;;;;;;16.93;70.34;99384.34;4916270;29;20079;-79
2022/07/22 00:50:28;;;;;;;3.10;2.60;;;;;;;17.01;70.48;99383.25;4915948;29;19934;-79
2022/07/22 00:52:56;;;;;;;4.97;2.80;;;;;;;16.84;70.58;99346.81;4930286;29;20056;-78
2022/07/22 00:55:24;;;;;;;3.50;2.83;;;;;;;17.01;70.40;99375.31;4915953;29;20111;-79
2022/07/22 00:57:51;;;;;;;3.65;2.90;;;;;;;16.94;70.89;99367.59;4915724;29;20056;-77
2022/07/22 01:00:20;;;;;;;3.88;2.63;;;;;;;16.99;70.54;99375.34;4915864;29;20375;-78
2022/07/22 01:02:50;;;;;;;4.55;3.05;;;;;;;17.01;70.67;99389.38;4930593;29;20052;-78
2022/07/22 01:05:17;;;;;;;3.00;2.70;;;;;;;16.71;70.85;99328.72;4915712;29;20064;-78
2022/07/22 01:07:45;;;;;;;4.25;3.00;;;;;;;16.94;70.79;99386.06;4915534;29;20506;-80
2022/07/22 01:10:14;;;;;;;4.35;2.83;;;;;;;16.94;71.04;99382.56;4898663;29;20561;-79
2022/07/22 01:12:41;;;;;;;2.72;2.53;;;;;;;16.89;70.95;99390.63;4915666;29;20060;-79
2022/07/22 01:15:09;;;;;;;3.45;2.50;;;;;;;16.81;71.43;99394.41;4898736;29;20103;-78
2022/07/22 01:17:37;;;;;;;3.25;2.83;;;;;;;16.73;71.42;99386.66;4915504;29;20151;-78
2022/07/22 01:20:07;;;;;;;5.55;2.60;;;;;;;16.80;71.53;99390.91;4914160;29;20066;-80
2022/07/22 01:22:35;;;;;;;3.15;2.63;;;;;;;16.84;71.54;99400.44;4929267;29;20150;-80
2022/07/22 01:25:02;;;;;;;6.80;2.40;;;;;;;16.87;71.42;99403.00;4929855;29;20618;-80
2022/07/22 01:27:30;;;;;;;4.20;2.80;;;;;;;16.89;71.55;99403.81;4930246;29;20142;-78
2022/07/22 01:30:00;;;;;;;4.13;2.55;;;;;;;16.93;71.36;99399.31;4898752;29;20099;-79
2022/07/22 01:32:29;;;;;;;3.03;2.17;;;;;;;16.87;71.29;99378.41;4930184;29;20052;-80
2022/07/22 01:34:56;;;;;;;4.75;2.35;;;;;;;16.90;71.40;99396.75;4915413;29;20063;-78
2022/07/22 01:37:23;;;;;;;2.58;2.35;;;;;;;16.93;71.29;99408.09;4914042;29;20163;-80
2022/07/22 01:39:50;;;;;;;3.30;2.38;;;;;;;16.87;71.29;99395.06;4898434;29;20557;-79
2022/07/22 01:42:18;;;;;;;4.82;2.85;;;;;;;16.90;71.40;99402.03;4930073;29;20147;-79
2022/07/22 01:44:46;;;;;;;3.75;2.55;;;;;;;16.67;71.69;99394.75;4930554;29;20541;-79
2022/07/22 01:47:14;;;;;;;3.60;2.55;;;;;;;16.86;71.57;99427.63;4898348;29;20048;-78
2022/07/22 01:49:44;;;;;;;4.18;2.65;;;;;;;16.86;71.68;99430.25;4902097;29;20067;-77
2022/07/22 01:52:13;;;;;;;3.20;2.80;;;;;;;16.83;71.76;99432.16;4936838;29;20060;-78
2022/07/22 01:54:42;;;;;;;3.83;3.10;;;;;;;16.75;71.83;99424.41;4907328;29;20151;-78
2022/07/22 01:57:10;;;;;;;5.75;3.25;;;;;;;16.78;71.99;99432.25;4939627;29;20071;-79
2022/07/22 01:59:43;;;;;;;3.17;2.80;;;;;;;16.83;71.97;99440.91;4938243;29;20064;-77
2022/07/22 02:02:10;;;;;;;3.80;3.00;;;;;;;16.84;71.71;99440.00;4937957;29;20055;-78
2022/07/22 02:04:37;;;;;;;4.57;3.03;;;;;;;16.82;71.94;99447.13;4938529;29;20534;-79
2022/07/22 02:07:04;;;;;;;3.45;3.15;;;;;;;16.85;71.81;99440.88;4922996;29;20052;-76
2022/07/22 02:09:31;;;;;;;3.40;2.80;;;;;;;16.77;71.66;99414.69;4901718;29;20068;-79
2022/07/22 02:11:59;;;;;;;4.32;2.75;;;;;;;16.91;71.39;99443.34;4915559;29;20064;-79
2022/07/22 02:14:33;;;;;;;3.88;2.60;;;;;;;16.88;71.72;99435.50;4898264;29;20494;-80
2022/07/22 02:17:02;;;;;;;5.80;2.90;;;;;;;16.91;71.36;99425.72;4929694;29;20063;-77
2022/07/22 02:19:30;;;;;;;4.00;3.35;;;;;;;16.94;71.23;99436.19;4929528;29;20475;-77
2022/07/22 02:21:57;;;;;;;4.65;3.00;;;;;;;17.03;71.09;99450.03;4916943;29;20059;-79
2022/07/22 02:24:24;;;;;;;4.53;2.78;;;;;;;17.01;71.14;99455.34;4916758;29;20504;-77
2022/07/22 02:26:51;;;;;;;3.28;2.80;;;;;;;16.83;71.21;99411.91;4944613;29;20072;-77
2022/07/22 02:29:18;;;;;;;3.10;2.58;;;;;;;17.47;70.14;99453.09;4929016;29;20056;-76
2022/07/22 02:31:46;;;;;;;3.08;2.80;;;;;;;19.28;64.19;99453.88;4940641;29;20052;-77
2022/07/22 02:34:13;;;;;;;5.25;2.80;;;;;;;18.45;65.22;99412.81;4900977;29;20088;-79
2022/07/22 02:36:40;;;;;;;4.18;2.72;;;;;;;17.93;67.35;99415.50;4918710;29;20068;-78
2022/07/22 02:39:08;;;;;;;4.50;2.75;;;;;;;17.95;67.73;99455.09;4932955;29;20086;-79
2022/07/22 02:41:37;;;;;;;6.53;3.00;;;;;;;18.03;67.96;99457.50;4885838;29;20115;-78
2022/07/22 02:44:05;;;;;;;5.35;2.63;;;;;;;18.09;67.70;99468.72;4932660;29;20103;-79
2022/07/22 02:46:32;;;;;;;6.40;2.70;;;;;;;18.07;67.57;99462.63;4932888;29;20071;-78
2022/07/22 02:49:10;;;;;;;5.00;2.70;;;;;;;19.74;63.38;99468.81;4932895;29;20060;-80
2022/07/22 02:51:37;;;;;;;2.45;2.25;;;;;;;22.35;55.60;99464.06;4900993;29;20123;-79
2022/07/22 02:54:05;;;;;;;2.85;2.50;;;;;;;24.53;49.83;99462.59;4932459;29;20091;-78
2022/07/22 02:56:32;;;;;;;4.05;2.20;;;;;;;25.84;45.94;99466.91;4932537;29;20051;-77
2022/07/22 02:59:00;;;;;;;4.35;2.40;;;;;;;26.24;44.60;99473.16;4900851;29;20045;-79
2022/07/22 03:01:28;;;;;;;2.72;2.10;;;;;;;26.90;42.97;99454.34;4942452;29;20142;-79
2022/07/22 03:04:00;;;;;;;2.47;2.05;;;;;;;27.52;41.49;99473.13;4936616;29;20544;-79
2022/07/22 03:06:32;;;;;;;2.58;1.90;;;;;;;28.06;40.42;99465.63;4935461;29;20058;-79
2022/07/22 03:09:09;;;;;;;4.22;2.10;;;;;;;28.30;39.34;99481.69;4951431;29;20103;-78
2022/07/22 03:11:41;;;;;;;3.38;2.20;;;;;;;28.50;38.93;99475.69;4935540;29;20056;-79
2022/07/22 03:14:09;;;;;;;2.65;2.00;;;;;;;28.96;38.14;99476.63;4935453;29;20138;-78
2022/07/22 03:16:38;;;;;;;2.05;1.85;;;;;;;29.63;36.87;99493.72;4919539;29;20052;-79
2022/07/22 03:19:06;;;;;;;3.30;1.80;;;;;;;29.87;35.76;99477.41;4951452;28;20076;-78
2022/07/22 03:21:34;;;;;;;2.17;1.85;;;;;;;29.56;36.38;99471.84;4916371;29;20083;-78
2022/07/22 03:24:01;;;;;;;2.30;1.75;;;;;;;30.00;35.68;99502.31;4931999;29;20459;-78
2022/07/22 03:26:28;;;;;;;2.40;2.20;;;;;;;30.13;35.31;99499.44;4932170;29;20056;-77
2022/07/22 03:28:57;;;;;;;2.00;1.90;;;;;;;30.31;35.07;99510.53;4931831;29;20059;-78
2022/07/22 03:31:25;;;;;;;3.65;2.10;;;;;;;30.35;34.77;99487.75;4917554;29;20503;-76
2022/07/22 03:33:53;;;;;;;2.58;2.10;;;;;;;30.55;34.13;99494.16;4931956;29;20114;-79
2022/07/22 03:36:20;;;;;;;2.05;1.83;;;;;;;30.38;34.17;99477.56;4931919;29;20064;-79
2022/07/22 03:38:51;;;;;;;2.28;1.88;;;;;;;30.97;33.39;99513.84;4931996;29;20201;-77
2022/07/22 03:41:19;;;;;;;4.28;1.95;;;;;;;30.84;33.22;99502.38;4916406;29;20146;-78
2022/07/22 03:43:47;;;;;;;3.97;1.92;;;;;;;30.90;33.35;99496.50;4931622;29;20569;-77
2022/07/22 03:46:14;;;;;;;3.65;1.92;;;;;;;31.39;32.62;99505.66;4907608;29;20058;-77
2022/07/22 03:48:41;;;;;;;2.13;2.00;;;;;;;31.80;31.55;99494.84;4919085;29;20104;-78
2022/07/22 03:51:08;;;;;;;2.35;1.98;;;;;;;32.13;31.24;99503.59;4915618;29;20561;-79
2022/07/22 03:53:37;;;;;;;1.75;1.65;;;;;;;32.61;30.46;99509.00;4934736;29;20094;-78
2022/07/22 03:56:04;;;;;;;3.50;1.92;;;;;;;32.03;31.05;99509.84;4944734;29;20150;-80
2022/07/22 03:58:32;;;;;;;2.17;1.92;;;;;;;32.48;30.55;99508.38;4914773;29;20130;-78
2022/07/22 04:01:00;;;;;;;2.30;2.10;;;;;;;33.86;28.31;99505.09;4932098;29;20143;-78
2022/07/22 04:03:29;;;;;;;3.78;2.17;;;;;;;33.45;28.81;99518.16;4932223;29;20052;-79
2022/07/22 04:06:08;;;;;;;2.42;1.85;;;;;;;32.84;29.82;99509.50;4932283;29;20510;-79
2022/07/22 04:08:48;;;;;;;2.22;2.03;;;;;;;32.54;29.61;99469.16;4932581;29;20060;-84
2022/07/22 04:11:16;;;;;;;1.92;1.77;;;;;;;33.01;29.40;99494.34;4917404;29;20052;-81
2022/07/22 04:13:43;;;;;;;2.63;1.85;;;;;;;32.51;30.14;99505.41;4900697;29;20064;-80
2022/07/22 04:16:10;;;;;;;4.40;1.92;;;;;;;31.32;31.73;99498.22;4917212;29;20064;-81
2022/07/22 04:18:45;;;;;;;3.47;2.00;;;;;;;28.45;36.76;99504.69;4900432;29;20062;-81
2022/07/22 04:21:14;;;;;;;2.50;2.00;;;;;;;26.98;39.76;99508.28;4931831;29;20048;-77
2022/07/22 04:23:50;;;;;;;2.05;1.85;;;;;;;25.27;43.28;99524.88;4915672;29;20430;-79
2022/07/22 04:26:26;;;;;;;5.32;2.20;;;;;;;24.66;44.61;99541.97;4900554;29;20063;-80
2022/07/22 04:28:53;;;;;;;2.55;1.75;;;;;;;24.38;45.60;99532.91;4917255;29;20098;-80
2022/07/22 04:31:21;;;;;;;3.03;2.00;;;;;;;24.29;45.94;99533.44;4917484;29;20063;-80
2022/07/22 04:33:57;;;;;;;3.90;2.10;;;;;;;24.22;46.20;99535.63;4931803;29;20082;-79
2022/07/22 04:36:27;;;;;;;2.20;2.00;;;;;;;24.46;45.56;99530.66;4931725;29;20060;-79
2022/07/22 04:38:54;;;;;;;4.05;1.85;;;;;;;24.29;46.21;99522.78;4915264;29;20430;-78
2022/07/22 04:41:22;;;;;;;1.83;1.73;;;;;;;24.10;46.51;99534.50;4931772;29;20158;-78
2022/07/22 04:43:50;;;;;;;1.43;1.37;;;;;;;23.55;47.45;99539.41;4931939;29;20055;-80
2022/07/22 04:46:20;;;;;;;2.22;1.70;;;;;;;23.31;48.45;99547.78;4931545;29;20060;-80
2022/07/22 04:48:48;;;;;;;3.70;1.65;;;;;;;23.19;48.67;99537.78;4931716;29;20055;-78
2022/07/22 04:51:15;;;;;;;1.83;1.73;;;;;;;23.00;49.50;99540.56;4900028;29;20056;-78
2022/07/22 04:53:47;;;;;;;3.97;1.90;;;;;;;23.02;49.63;99538.72;4931742;29;20150;-81
2022/07/22 04:56:20;;;;;;;1.98;1.88;;;;;;;22.86;50.13;99538.63;4914165;29;20082;-81
2022/07/22 04:58:53;;;;;;;2.88;1.65;;;;;;;22.75;50.32;99546.31;4916875;29;20567;-80
2022/07/22 05:01:26;;;;;;;2.00;1.80;;;;;;;22.88;50.17;99534.91;4931592;29;20055;-77
2022/07/22 05:04:02;;;;;;;2.08;1.83;;;;;;;22.75;49.76;99499.25;4899292;29;20088;-77
2022/07/22 05:06:31;;;;;;;3.58;2.10;;;;;;;23.04;50.06;99550.16;4932254;29;20514;-79
2022/07/22 05:09:00;;;;;;;6.63;2.50;;;;;;;23.28;49.78;99551.50;4899449;29;20562;-78
2022/07/22 05:11:32;;;;;;;2.35;1.90;;;;;;;23.29;49.51;99505.22;4931311;29;20059;-79
2022/07/22 05:14:01;;;;;;;2.28;1.70;;;;;;;23.40;49.39;99552.63;4900014;29;20529;-80
2022/07/22 05:16:29;;;;;;;7.45;1.95;;;;;;;23.21;50.35;99542.13;4916730;29;20055;-79
2022/07/22 05:18:59;;;;;;;4.45;1.95;;;;;;;23.02;50.38;99525.41;4930581;29;20209;-79
2022/07/22 05:21:27;;;;;;;2.05;1.80;;;;;;;23.00;50.60;99554.78;4915324;29;20103;-79
2022/07/22 05:23:54;;;;;;;3.30;2.00;;;;;;;22.86;50.53;99541.28;4931018;29;20511;-75
2022/07/22 05:26:22;;;;;;;2.17;1.88;;;;;;;23.21;50.49;99587.41;4916304;29;20470;-78
2022/07/22 05:28:52;;;;;;;3.33;2.10;;;;;;;23.25;49.96;99580.09;4917069;29;20147;-80
2022/07/22 05:31:20;;;;;;;2.25;1.83;;;;;;;22.99;50.12;99525.50;4931016;29;20087;-78
2022/07/22 05:33:47;;;;;;;1.95;1.80;;;;;;;23.15;50.08;99562.91;4931045;29;20056;-77
2022/07/22 05:36:30;;;;;;;2.08;1.92;;;;;;;23.11;50.91;99572.84;4913141;29;20056;-80
2022/07/22 05:38:57;;;;;;;1.80;1.70;;;;;;;23.55;50.20;99593.56;4899039;29;20411;-79
2022/07/22 05:41:25;;;;;;;2.05;1.90;;;;;;;23.60;49.93;99590.69;4914983;29;20062;-79
2022/07/22 05:43:53;;;;;;;3.40;1.80;;;;;;;23.31;50.57;99574.44;4916156;29;20168;-80
2022/07/22 05:46:20;;;;;;;2.97;2.00;;;;;;;22.99;51.27;99562.81;4914707;29;20052;-79
2022/07/22 05:48:48;;;;;;;2.40;2.20;;;;;;;23.14;51.15;99566.50;4897428;29;20063;-80
2022/07/22 05:51:16;;;;;;;3.38;2.53;;;;;;;23.07;51.17;99595.25;4930809;29;20082;-81
2022/07/22 05:53:44;;;;;;;2.80;2.28;;;;;;;22.85;51.65;99543.09;4899371;29;20074;-79
2022/07/22 05:56:12;;;;;;;5.13;2.20;;;;;;;22.95;51.06;99524.84;4899463;29;20052;-79
2022/07/22 05:58:41;;;;;;;5.32;2.30;;;;;;;23.52;50.54;99573.28;4899064;29;20146;-82
2022/07/22 06:01:11;;;;;;;2.50;2.15;;;;;;;22.86;50.67;99515.50;4899193;29;20072;-80
2022/07/22 06:03:39;;;;;;;2.83;2.30;;;;;;;22.87;51.51;99561.66;4930612;29;20514;-80
2022/07/22 06:06:08;;;;;;;2.78;2.53;;;;;;;22.61;51.88;99541.72;4914714;29;20142;-80
2022/07/22 06:08:36;;;;;;;;;;;;;;;22.51;52.40;99575.06;4933464;29;20052;-81
2022/07/22 06:11:03;;;;;;;4.32;2.58;;;;;;;22.53;52.58;99578.50;4919489;29;19927;-82
2022/07/22 06:13:31;;;;;;;2.28;2.17;;;;;;;22.42;52.63;99590.53;4934369;29;20601;-79
2022/07/22 06:15:58;;;;;;;5.38;2.45;;;;;;;22.48;52.83;99589.38;4934337;29;20056;-79
2022/07/22 06:18:27;;;;;;;2.80;2.15;;;;;;;22.39;52.83;99525.94;4902381;29;20119;-80
2022/07/22 06:20:57;;;;;;;2.53;2.20;;;;;;;22.55;52.45;99566.81;4902277;29;20067;-79
2022/07/22 06:23:25;;;;;;;4.50;2.20;;;;;;;22.65;52.38;99612.44;4934137;29;20107;-81
2022/07/22 06:25:52;;;;;;;2.60;2.00;;;;;;;22.69;52.42;99590.94;4919502;29;20090;-80
2022/07/22 06:28:25;;;;;;;4.40;2.10;;;;;;;22.87;52.35;99596.28;4902284;29;20052;-81
2022/07/22 06:30:53;;;;;;;8.15;2.47;;;;;;;23.15;51.52;99586.88;4934287;29;20060;-80
2022/07/22 06:33:21;;;;;;;2.13;1.93;;;;;;;23.12;51.05;99582.53;4918051;29;20083;-79
2022/07/22 06:35:50;;;;;;;5.22;2.38;;;;;;;23.21;50.95;99594.50;4934071;29;20288;-79
2022/07/22 06:38:20;;;;;;;2.40;2.08;;;;;;;23.23;50.71;99601.50;4933864;29;20048;-79
2022/07/22 06:41:19;;;;;;;2.05;1.90;;;;;;;23.39;50.36;99600.69;4919041;29;20441;-80
2022/07/22 06:44:13;;;;;;;2.58;1.83;;;;;;;23.21;50.29;99602.50;4909876;29;20399;-79
2022/07/22 06:46:45;;;;;;;1.75;1.65;;;;;;;22.98;50.19;99607.22;4919293;29;20147;-78
2022/07/22 06:49:17;;;;;;;1.92;1.77;;;;;;;22.66;50.50;99556.47;4934022;29;20151;-78
2022/07/22 06:51:45;;;;;;;1.98;1.80;;;;;;;22.78;51.10;99564.78;4901917;29;20071;-78
2022/07/22 06:54:13;;;;;;;2.80;1.95;;;;;;;22.89;51.49;99589.91;4933585;29;20109;-80
2022/07/22 06:56:40;;;;;;;4.18;1.88;;;;;;;22.77;51.48;99574.56;4918923;29;20052;-81
2022/07/22 06:59:12;;;;;;;4.10;2.05;;;;;;;22.93;51.40;99556.00;4901889;29;20060;-82
2022/07/22 07:01:42;;;;;;;3.72;1.95;;;;;;;23.24;50.42;99605.88;4918513;29;20064;-80
2022/07/22 07:04:12;;;;;;;4.03;2.03;;;;;;;23.22;50.69;99599.78;4901943;29;20056;-79
2022/07/22 07:06:40;;;;;;;3.72;2.10;;;;;;;23.59;49.53;99592.47;4933726;29;20063;-78
2022/07/22 07:09:25;;;;;;;1.88;1.77;;;;;;;23.85;48.83;99588.38;4934615;29;20112;-82
2022/07/22 07:12:03;;;;;;;5.45;2.03;;;;;;;23.90;48.75;99578.34;4939346;29;20060;-78
2022/07/22 07:14:51;;;;;;;3.33;1.58;;;;;;;23.85;48.49;99633.72;4930666;29;20075;-79
2022/07/22 07:17:39;;;;;;;2.03;1.83;;;;;;;23.77;48.16;99622.63;4944363;29;20052;-79
2022/07/22 07:20:10;;;;;;;1.88;1.75;;;;;;;23.71;48.33;99641.59;4909465;29;20055;-79
2022/07/22 07:22:39;;;;;;;1.95;1.85;;;;;;;23.58;48.52;99613.88;4937284;29;20087;-77
2022/07/22 07:25:08;;;;;;;4.32;2.17;;;;;;;23.63;48.17;99602.00;4918073;29;20514;-79
2022/07/22 07:27:54;;;;;;;1.70;1.45;;;;;;;23.88;47.72;99614.03;4933348;29;20056;-80
2022/07/22 07:30:42;;;;;;;2.47;1.70;;;;;;;23.94;47.08;99618.16;4918070;29;20062;-81
2022/07/22 07:33:13;;;;;;;1.92;1.80;;;;;;;23.73;47.97;99606.88;4901459;29;20512;-79
2022/07/22 07:35:41;;;;;;;2.88;2.08;;;;;;;23.70;47.58;99582.09;4901811;29;20063;-77
2022/07/22 07:38:09;;;;;;;5.65;2.90;;;;;;;23.98;47.67;99609.91;4915642;29;20499;-79
2022/07/22 07:40:40;;;;;;;1.80;1.60;;;;;;;24.04;47.46;99598.88;4932748;29;20142;-80
2022/07/22 07:43:13;;;;;;;2.53;2.00;;;;;;;24.32;47.30;99606.16;4901052;29;20075;-79
2022/07/22 07:45:41;;;;;;;1.83;1.73;;;;;;;24.19;46.95;99598.97;4917920;29;20166;-80
2022/07/22 07:48:09;;;;;;;3.50;1.90;;;;;;;24.13;47.56;99616.19;4932280;29;20135;-80
2022/07/22 07:50:38;;;;;;;2.08;1.80;;;;;;;24.08;47.66;99634.25;4900936;29;20052;-79
2022/07/22 07:53:07;;;;;;;3.10;1.80;;;;;;;23.94;48.26;99631.50;4917802;29;20091;-79
2022/07/22 07:55:37;;;;;;;2.13;1.92;;;;;;;24.09;48.12;99626.19;4901121;29;20103;-76
2022/07/22 07:58:07;;;;;;;2.13;1.90;;;;;;;24.32;47.96;99624.84;4932451;29;20498;-78
2022/07/22 08:00:38;;;;;;;2.03;1.80;;;;;;;24.49;47.35;99623.06;4932222;29;20060;-79
2022/07/22 08:03:09;;;;;;;2.97;1.80;;;;;;;24.64;46.73;99624.84;4932452;29;20052;-81
2022/07/22 08:05:38;;;;;;;4.10;1.77;;;;;;;24.83;46.41;99615.75;4932638;29;20055;-80
2022/07/22 08:08:13;;;;;;;2.05;1.70;;;;;;;24.83;46.34;99578.34;4897299;29;20108;-77
2022/07/22 08:10:44;;;;;;;4.50;1.83;;;;;;;25.13;45.65;99627.25;4913203;29;20060;-77
2022/07/22 08:13:43;;;;;;;2.22;2.00;;;;;;;25.12;45.44;99622.88;4898853;29;20056;-78
2022/07/22 08:16:12;;;;;;;6.78;2.30;;;;;;;24.97;45.44;99572.16;4912810;29;20104;-80
2022/07/22 08:18:40;;;;;;;4.13;1.83;;;;;;;25.51;44.79;99637.47;4896995;29;20064;-78
2022/07/22 08:21:08;;;;;;;3.85;1.90;;;;;;;25.17;44.89;99552.22;4913735;29;20060;-80
2022/07/22 08:23:48;;;;;;;2.88;1.90;;;;;;;25.37;45.51;99629.41;4912956;29;20064;-80
2022/07/22 08:26:16;;;;;;;2.72;2.00;;;;;;;25.08;45.27;99597.28;4912448;29;20056;-80
2022/07/22 08:28:44;;;;;;;2.10;1.90;;;;;;;25.04;45.75;99606.44;4898250;29;20060;-80
2022/07/22 08:31:11;;;;;;;3.03;1.85;;;;;;;25.12;43.89;99630.00;4897878;29;20578;-78
2022/07/22 08:33:38;;;;;;;1.90;1.80;;;;;;;25.15;45.00;99635.19;4898281;29;20063;-78
2022/07/22 08:36:06;;;;;;;1.90;1.75;;;;;;;25.23;44.62;99648.09;4898111;29;20111;-79
2022/07/22 08:38:34;;;;;;;3.72;1.80;;;;;;;25.05;45.71;99631.34;4912465;29;20532;-80
2022/07/22 08:41:03;;;;;;;2.58;2.00;;;;;;;25.08;45.48;99645.41;4912645;29;20053;-78
2022/07/22 08:43:35;;;;;;;2.15;1.92;;;;;;;25.18;45.99;99623.44;4897333;29;20068;-79
2022/07/22 08:46:04;;;;;;;3.03;1.98;;;;;;;25.37;45.33;99626.75;4897861;29;20159;-80
2022/07/22 08:48:49;;;;;;;2.63;2.03;;;;;;;25.24;45.28;99596.38;4898182;29;20139;-79
2022/07/22 08:51:29;;;;;;;2.35;2.17;;;;;;;25.57;45.00;99638.88;4912427;29;20060;-78
2022/07/22 08:54:13;;;;;;;7.63;2.30;;;;;;;25.56;44.51;99658.56;4912819;29;20048;-78
2022/07/22 08:56:46;;;;;;;3.25;2.15;;;;;;;25.42;44.71;99645.16;4912362;29;20052;-80
2022/07/22 08:59:14;;;;;;;3.05;2.10;;;;;;;25.39;44.47;99650.72;4912439;29;20507;-78
2022/07/22 09:02:11;;;;;;;3.67;2.47;;;;;;;25.59;44.64;99646.81;4897503;29;20411;-81
2022/07/22 09:05:03;;;;;;;3.72;2.17;;;;;;;25.68;44.62;99655.13;4912658;29;20067;-80
2022/07/22 09:07:57;;;;;;;;;;;;;;;25.47;45.17;99664.47;4912567;29;20045;-80
2022/07/22 09:11:15;;;;;;;5.63;2.10;;;;;;;25.27;45.48;99671.03;4895039;29;20034;-80
2022/07/22 09:14:01;;;;;;;1.90;1.80;;;;;;;25.28;45.26;99662.06;4897702;29;20089;-79
2022/07/22 09:16:56;;;;;;;2.50;1.92;;;;;;;25.11;44.85;99633.66;4896300;29;20076;-79
2022/07/22 09:19:33;;;;;;;2.33;2.13;;;;;;;25.34;44.92;99653.69;4913133;29;20068;-78
2022/07/22 09:22:31;;;;;;;2.95;2.33;;;;;;;25.58;44.10;99677.19;4916235;29;20063;-78
2022/07/22 09:25:22;;;;;;;3.90;1.98;;;;;;;25.47;44.55;99670.69;4899424;29;20059;-77
2022/07/22 09:28:24;;;;;;;4.63;1.98;;;;;;;25.44;44.23;99667.31;4904259;29;20071;-77
2022/07/22 09:31:29;;;;;;;2.00;1.90;;;;;;;25.12;44.02;99624.66;4914766;29;20060;-78
2022/07/22 09:34:28;;;;;;;6.03;2.33;;;;;;;25.49;44.15;99670.56;4930766;29;20427;-79
2022/07/22 09:36:59;;;;;;;3.50;2.17;;;;;;;25.77;44.27;99655.47;4931153;29;20083;-80
2022/07/22 09:39:31;;;;;;;4.50;2.08;;;;;;;25.74;43.66;99651.19;4930920;29;20055;-79
2022/07/22 09:42:02;;;;;;;2.53;1.90;;;;;;;25.92;43.91;99665.25;4899673;29;20064;-78
2022/07/22 09:44:29;;;;;;;2.22;2.03;;;;;;;26.25;42.76;99662.25;4934517;29;20111;-75
2022/07/22 09:47:01;;;;;;;3.25;2.22;;;;;;;26.51;42.61;99654.31;4902933;29;20487;-77
2022/07/22 09:49:45;;;;;;;2.78;2.13;;;;;;;26.86;41.97;99640.41;4919950;29;20048;-77
2022/07/22 09:52:38;;;;;;;3.30;2.20;;;;;;;26.58;41.43;99586.03;4902455;29;20399;-79
2022/07/22 09:55:14;;;;;;;3.05;1.90;;;;;;;26.79;41.86;99658.72;4934193;29;20479;-79
2022/07/22 09:57:43;;;;;;;3.85;2.13;;;;;;;26.81;42.05;99650.59;4935371;29;20056;-80
2022/07/22 10:00:12;;;;;;;3.10;1.75;;;;;;;26.80;41.81;99632.78;4918152;29;20052;-79
2022/07/22 10:02:49;;;;;;;4.13;2.33;;;;;;;26.69;41.93;99628.16;4919508;29;20150;-78
2022/07/22 10:05:23;;;;;;;3.90;2.30;;;;;;;26.76;42.16;99642.88;4934615;29;20056;-79
2022/07/22 10:07:52;;;;;;;4.28;2.30;;;;;;;26.55;42.11;99663.88;4934781;29;20091;-79
2022/07/22 10:10:22;;;;;;;4.35;2.00;;;;;;;26.23;42.43;99633.84;4902433;29;20074;-78
2022/07/22 10:12:52;;;;;;;4.88;2.10;;;;;;;25.62;42.46;99580.63;4933527;29;20119;-77
2022/07/22 10:15:21;;;;;;;2.13;1.83;;;;;;;25.99;43.05;99650.53;4933755;29;20063;-78
2022/07/22 10:17:53;;;;;;;2.13;2.00;;;;;;;26.04;42.22;99651.09;4902522;29;20143;-78
2022/07/22 10:20:24;;;;;;;4.90;2.00;;;;;;;25.68;43.42;99647.09;4933967;29;20055;-80
2022/07/22 10:22:57;;;;;;;3.95;1.80;;;;;;;25.78;43.02;99657.22;4920867;29;20047;-78
2022/07/22 10:25:32;;;;;;;4.03;2.20;;;;;;;25.52;43.36;99657.03;4921368;29;20139;-76
2022/07/22 10:28:02;;;;;;;;;;;;;;;25.32;43.70;99661.78;4885382;29;20061;-80
2022/07/22 10:30:31;;;;;;;3.85;2.30;;;;;;;25.56;43.27;99663.91;4901638;29;19935;-78
2022/07/22 10:33:02;;;;;;;4.53;1.90;;;;;;;25.78;42.14;99652.72;4902496;29;20518;-80
2022/07/22 10:35:30;;;;;;;4.55;2.17;;;;;;;25.87;41.42;99662.84;4901038;29;20060;-79
2022/07/22 10:38:05;;;;;;;3.58;1.77;;;;;;;25.98;41.54;99659.50;4909880;29;20075;-78
2022/07/22 10:40:51;;;;;;;4.57;1.80;;;;;;;25.80;41.16;99624.06;4919190;29;20103;-78
2022/07/22 10:43:25;;;;;;;2.72;1.70;;;;;;;26.08;40.48;99662.47;4919435;29;20048;-78
2022/07/22 10:45:57;;;;;;;2.17;1.63;;;;;;;26.11;39.87;99652.44;4918891;29;20056;-79
2022/07/22 10:48:33;;;;;;;2.78;1.90;;;;;;;26.30;39.92;99644.03;4918966;29;20052;-80
2022/07/22 10:51:09;;;;;;;7.50;1.95;;;;;;;26.42;39.14;99641.53;4919054;29;20059;-81
2022/07/22 10:53:51;;;;;;;3.63;1.60;;;;;;;26.71;39.18;99653.88;4919028;29;20108;-78
2022/07/22 10:56:21;;;;;;;2.85;1.70;;;;;;;26.49;38.83;99648.22;4918951;29;20059;-78
2022/07/22 10:58:51;;;;;;;;;;;;;;;26.11;39.70;99655.13;4919079;29;20051;-78
2022/07/22 11:01:24;;;;;;;1.85;1.50;;;;;;;25.89;39.57;99639.53;4919563;29;19927;-80
2022/07/22 11:03:51;;;;;;;2.38;1.60;;;;;;;25.66;40.00;99650.81;4918830;29;20119;-81
2022/07/22 11:06:18;;;;;;;1.58;1.48;;;;;;;25.27;40.68;99594.34;4901840;29;20055;-79
2022/07/22 11:08:48;;;;;;;3.90;1.70;;;;;;;25.60;40.86;99657.41;4918527;29;20446;-79
2022/07/22 11:11:15;;;;;;;;;;;;;;;25.45;41.17;99659.22;4919239;29;20146;-81
2022/07/22 11:13:44;;;;;;;2.47;1.92;;;;;;;25.64;40.95;99645.56;4918235;29;19927;-78
2022/07/22 11:16:14;;;;;;;1.63;1.52;;;;;;;25.84;40.21;99656.84;4918222;29;20064;-78
2022/07/22 11:18:46;;;;;;;5.82;2.28;;;;;;;26.04;39.79;99653.75;4917699;29;20052;-79
2022/07/22 11:21:17;;;;;;;2.97;2.20;;;;;;;26.12;40.00;99651.47;4918659;29;20048;-79
2022/07/22 11:23:49;;;;;;;4.60;2.22;;;;;;;26.38;39.57;99673.00;4918650;29;20087;-78
2022/07/22 11:26:19;;;;;;;2.13;1.92;;;;;;;26.29;39.40;99653.06;4918221;29;20427;-80
2022/07/22 11:28:47;;;;;;;3.75;2.03;;;;;;;26.21;39.43;99652.69;4932933;29;20108;-77
2022/07/22 11:31:16;;;;;;;2.13;1.75;;;;;;;25.97;39.53;99635.53;4918342;29;20159;-77
2022/07/22 11:33:45;;;;;;;4.50;1.83;;;;;;;25.87;40.07;99660.16;4901531;29;20056;-78
2022/07/22 11:36:12;;;;;;;2.75;1.83;;;;;;;25.80;40.02;99652.63;4918168;29;20055;-78
2022/07/22 11:38:48;;;;;;;2.38;1.90;;;;;;;25.67;40.47;99664.09;4917716;29;20083;-78
2022/07/22 11:41:19;;;;;;;2.20;1.67;;;;;;;25.67;40.49;99640.03;4918262;29;20151;-78
2022/07/22 11:43:49;;;;;;;6.18;2.15;;;;;;;25.74;40.61;99649.38;4932286;29;20056;-79
2022/07/22 11:46:18;;;;;;;4.20;2.13;;;;;;;25.41;40.59;99646.13;4918275;29;20604;-78
2022/07/22 11:48:45;;;;;;;5.25;2.17;;;;;;;25.19;41.10;99673.25;4917693;29;20060;-79
2022/07/22 11:51:15;;;;;;;3.33;2.10;;;;;;;24.85;41.04;99640.56;4918022;29;20058;-80
2022/07/22 11:53:49;;;;;;;5.20;1.90;;;;;;;24.70;41.14;99651.19;4931361;29;20103;-77